sensor_id;sensor_type;location;lat;lon;timestamp;temperature;humidity
40660;DHT22;26753;45.544;9.232;2023-05-07T00:00:35;24.10;99.90
40660;DHT22;26753;45.544;9.232;2023-05-07T00:03:03;24.10;99.90
40660;DHT22;26753;45.544;9.232;2023-05-07T00:05:28;24.10;99.90
40660;DHT22;26753;45.544;9.232;2023-05-07T00:08:00;24.10;99.90
40660;DHT22;26753;45.544;9.232;2023-05-07T00:10:29;24.10;99.90
40660;DHT22;26753;45.544;9.232;2023-05-07T00:12:55;24.10;99.90
40660;DHT22;26753;45.544;9.232;2023-05-07T00:15:21;24.10;99.90
40660;DHT22;26753;45.544;9.232;2023-05-07T00:20:52;24.10;99.90
40660;DHT22;26753;45.544;9.232;2023-05-07T00:23:18;24.10;99.90
40660;DHT22;26753;45.544;9.232;2023-05-07T00:25:43;24.10;99.90
40660;DHT22;26753;45.544;9.232;2023-05-07T00:28:15;24.10;99.90
40660;DHT22;26753;45.544;9.232;2023-05-07T00:30:41;24.10;99.90
40660;DHT22;26753;45.544;9.232;2023-05-07T00:33:06;24.10;99.90
40660;DHT22;26753;45.544;9.232;2023-05-07T00:35:32;24.60;99.90
40660;DHT22;26753;45.544;9.232;2023-05-07T00:37:58;23.80;99.90
40660;DHT22;26753;45.544;9.232;2023-05-07T00:40:26;23.70;99.90
40660;DHT22;26753;45.544;9.232;2023-05-07T00:42:52;23.60;99.90
40660;DHT22;26753;45.544;9.232;2023-05-07T00:45:22;23.40;99.90
40660;DHT22;26753;45.544;9.232;2023-05-07T00:47:48;23.40;99.90
40660;DHT22;26753;45.544;9.232;2023-05-07T00:50:14;23.40;99.90
40660;DHT22;26753;45.544;9.232;2023-05-07T00:52:39;23.40;99.90
40660;DHT22;26753;45.544;9.232;2023-05-07T00:55:07;23.30;99.90
40660;DHT22;26753;45.544;9.232;2023-05-07T00:57:34;23.10;99.90
40660;DHT22;26753;45.544;9.232;2023-05-07T01:00:12;23.00;99.90
40660;DHT22;26753;45.544;9.232;2023-05-07T01:05:37;23.00;99.90
40660;DHT22;26753;45.544;9.232;2023-05-07T01:08:02;23.00;99.90
40660;DHT22;26753;45.544;9.232;2023-05-07T01:10:30;23.00;99.90
40660;DHT22;26753;45.544;9.232;2023-05-07T01:12:57;23.00;99.90
40660;DHT22;26753;45.544;9.232;2023-05-07T01:15:26;22.90;99.90
40660;DHT22;26753;45.544;9.232;2023-05-07T01:17:51;23.00;99.90
40660;DHT22;26753;45.544;9.232;2023-05-07T01:20:18;22.90;99.90
40660;DHT22;26753;45.544;9.232;2023-05-07T01:22:47;22.80;99.90
40660;DHT22;26753;45.544;9.232;2023-05-07T01:25:13;22.80;99.90
40660;DHT22;26753;45.544;9.232;2023-05-07T01:27:51;22.70;99.90
40660;DHT22;26753;45.544;9.232;2023-05-07T01:30:17;22.70;99.90
40660;DHT22;26753;45.544;9.232;2023-05-07T01:33:13;22.60;99.90
40660;DHT22;26753;45.544;9.232;2023-05-07T01:35:47;22.50;99.90
40660;DHT22;26753;45.544;9.232;2023-05-07T01:38:26;22.60;99.90
40660;DHT22;26753;45.544;9.232;2023-05-07T01:40:52;22.60;99.90
40660;DHT22;26753;45.544;9.232;2023-05-07T01:43:18;22.60;99.90
40660;DHT22;26753;45.544;9.232;2023-05-07T01:45:52;22.50;99.90
40660;DHT22;26753;45.544;9.232;2023-05-07T01:48:21;22.50;99.90
40660;DHT22;26753;45.544;9.232;2023-05-07T01:50:50;22.50;99.90
40660;DHT22;26753;45.544;9.232;2023-05-07T01:53:19;22.40;99.90
40660;DHT22;26753;45.544;9.232;2023-05-07T01:55:48;22.50;99.90
40660;DHT22;26753;45.544;9.232;2023-05-07T01:58:14;22.50;99.90
40660;DHT22;26753;45.544;9.232;2023-05-07T02:00:40;22.50;99.90
40660;DHT22;26753;45.544;9.232;2023-05-07T02:03:06;22.50;99.90
40660;DHT22;26753;45.544;9.232;2023-05-07T02:05:32;22.40;99.90
40660;DHT22;26753;45.544;9.232;2023-05-07T02:07:57;22.20;99.90
40660;DHT22;26753;45.544;9.232;2023-05-07T02:10:23;22.10;99.90
40660;DHT22;26753;45.544;9.232;2023-05-07T02:12:49;21.80;99.90
40660;DHT22;26753;45.544;9.232;2023-05-07T02:15:15;21.60;99.90
40660;DHT22;26753;45.544;9.232;2023-05-07T02:18:03;21.70;99.90
40660;DHT22;26753;45.544;9.232;2023-05-07T02:20:29;21.60;99.90
40660;DHT22;26753;45.544;9.232;2023-05-07T02:22:57;21.50;99.90
40660;DHT22;26753;45.544;9.232;2023-05-07T02:28:35;21.40;99.90
40660;DHT22;26753;45.544;9.232;2023-05-07T02:31:04;21.60;99.90
40660;DHT22;26753;45.544;9.232;2023-05-07T02:33:33;21.60;99.90
40660;DHT22;26753;45.544;9.232;2023-05-07T02:36:21;21.50;99.90
40660;DHT22;26753;45.544;9.232;2023-05-07T02:38:49;21.40;99.90
40660;DHT22;26753;45.544;9.232;2023-05-07T02:41:15;21.40;99.90
40660;DHT22;26753;45.544;9.232;2023-05-07T02:43:45;21.40;99.90
40660;DHT22;26753;45.544;9.232;2023-05-07T02:46:16;21.50;99.90
40660;DHT22;26753;45.544;9.232;2023-05-07T02:48:45;21.50;99.90
40660;DHT22;26753;45.544;9.232;2023-05-07T02:51:11;21.50;99.90
40660;DHT22;26753;45.544;9.232;2023-05-07T02:53:42;21.50;99.90
40660;DHT22;26753;45.544;9.232;2023-05-07T02:56:17;21.30;99.90
40660;DHT22;26753;45.544;9.232;2023-05-07T02:58:42;21.30;99.90
40660;DHT22;26753;45.544;9.232;2023-05-07T03:01:11;21.20;99.90
40660;DHT22;26753;45.544;9.232;2023-05-07T03:03:54;21.10;99.90
40660;DHT22;26753;45.544;9.232;2023-05-07T03:12:39;20.90;99.90
40660;DHT22;26753;45.544;9.232;2023-05-07T03:15:08;20.90;99.90
40660;DHT22;26753;45.544;9.232;2023-05-07T03:17:55;20.90;99.90
40660;DHT22;26753;45.544;9.232;2023-05-07T03:20:29;20.90;99.90
40660;DHT22;26753;45.544;9.232;2023-05-07T03:22:55;20.90;99.90
40660;DHT22;26753;45.544;9.232;2023-05-07T03:25:24;20.90;99.90
40660;DHT22;26753;45.544;9.232;2023-05-07T03:27:50;20.80;99.90
40660;DHT22;26753;45.544;9.232;2023-05-07T03:30:19;20.70;99.90
40660;DHT22;26753;45.544;9.232;2023-05-07T03:32:50;20.50;99.90
40660;DHT22;26753;45.544;9.232;2023-05-07T03:35:19;20.40;99.90
40660;DHT22;26753;45.544;9.232;2023-05-07T03:37:44;20.30;99.90
40660;DHT22;26753;45.544;9.232;2023-05-07T03:40:10;20.20;99.90
40660;DHT22;26753;45.544;9.232;2023-05-07T03:42:37;20.30;99.90
40660;DHT22;26753;45.544;9.232;2023-05-07T03:45:03;20.20;99.90
40660;DHT22;26753;45.544;9.232;2023-05-07T03:47:58;20.30;99.90
40660;DHT22;26753;45.544;9.232;2023-05-07T03:50:42;20.30;99.90
40660;DHT22;26753;45.544;9.232;2023-05-07T03:55:52;20.30;99.90
40660;DHT22;26753;45.544;9.232;2023-05-07T03:58:21;20.10;99.90
40660;DHT22;26753;45.544;9.232;2023-05-07T04:00:56;19.90;99.90
40660;DHT22;26753;45.544;9.232;2023-05-07T04:03:24;19.90;99.90
40660;DHT22;26753;45.544;9.232;2023-05-07T04:06:16;19.80;99.90
40660;DHT22;26753;45.544;9.232;2023-05-07T04:08:48;19.70;99.90
40660;DHT22;26753;45.544;9.232;2023-05-07T04:11:35;19.70;99.90
40660;DHT22;26753;45.544;9.232;2023-05-07T04:14:04;19.60;99.90
40660;DHT22;26753;45.544;9.232;2023-05-07T04:16:35;19.70;99.90
40660;DHT22;26753;45.544;9.232;2023-05-07T04:19:01;19.70;99.90
40660;DHT22;26753;45.544;9.232;2023-05-07T04:21:27;19.80;99.90
40660;DHT22;26753;45.544;9.232;2023-05-07T04:24:05;19.80;99.90
40660;DHT22;26753;45.544;9.232;2023-05-07T04:26:31;19.70;99.90
40660;DHT22;26753;45.544;9.232;2023-05-07T04:28:59;19.80;99.90
40660;DHT22;26753;45.544;9.232;2023-05-07T04:31:30;19.40;99.90
40660;DHT22;26753;45.544;9.232;2023-05-07T04:34:05;19.70;99.90
40660;DHT22;26753;45.544;9.232;2023-05-07T04:36:30;19.60;99.90
40660;DHT22;26753;45.544;9.232;2023-05-07T04:38:58;19.70;99.90
40660;DHT22;26753;45.544;9.232;2023-05-07T04:41:29;19.70;99.90
40660;DHT22;26753;45.544;9.232;2023-05-07T04:47:06;19.70;99.90
40660;DHT22;26753;45.544;9.232;2023-05-07T04:52:47;19.80;99.90
40660;DHT22;26753;45.544;9.232;2023-05-07T04:55:40;19.70;99.90
40660;DHT22;26753;45.544;9.232;2023-05-07T04:58:27;19.50;99.90
40660;DHT22;26753;45.544;9.232;2023-05-07T05:00:52;19.60;99.90
40660;DHT22;26753;45.544;9.232;2023-05-07T05:03:29;19.60;99.90
40660;DHT22;26753;45.544;9.232;2023-05-07T05:05:55;19.60;99.90
40660;DHT22;26753;45.544;9.232;2023-05-07T05:08:27;19.60;99.90
40660;DHT22;26753;45.544;9.232;2023-05-07T05:10:53;19.50;99.90
40660;DHT22;26753;45.544;9.232;2023-05-07T05:13:19;19.40;99.90
40660;DHT22;26753;45.544;9.232;2023-05-07T05:15:45;19.50;99.90
40660;DHT22;26753;45.544;9.232;2023-05-07T05:18:11;19.50;99.90
40660;DHT22;26753;45.544;9.232;2023-05-07T05:20:48;19.60;99.90
40660;DHT22;26753;45.544;9.232;2023-05-07T05:23:14;19.50;99.90
40660;DHT22;26753;45.544;9.232;2023-05-07T05:25:39;19.50;99.90
40660;DHT22;26753;45.544;9.232;2023-05-07T05:28:11;19.50;99.90
40660;DHT22;26753;45.544;9.232;2023-05-07T05:30:52;19.50;99.90
40660;DHT22;26753;45.544;9.232;2023-05-07T05:33:34;19.40;99.90
40660;DHT22;26753;45.544;9.232;2023-05-07T05:36:07;19.40;99.90
40660;DHT22;26753;45.544;9.232;2023-05-07T05:41:15;19.30;99.90
40660;DHT22;26753;45.544;9.232;2023-05-07T05:43:40;19.30;99.90
40660;DHT22;26753;45.544;9.232;2023-05-07T05:46:15;19.30;99.90
40660;DHT22;26753;45.544;9.232;2023-05-07T05:48:49;19.30;99.90
40660;DHT22;26753;45.544;9.232;2023-05-07T05:51:15;19.30;99.90
40660;DHT22;26753;45.544;9.232;2023-05-07T05:53:48;19.40;99.90
40660;DHT22;26753;45.544;9.232;2023-05-07T05:56:15;19.50;99.90
40660;DHT22;26753;45.544;9.232;2023-05-07T05:58:41;19.60;99.90
40660;DHT22;26753;45.544;9.232;2023-05-07T06:01:07;19.80;99.90
40660;DHT22;26753;45.544;9.232;2023-05-07T06:03:41;19.90;99.90
40660;DHT22;26753;45.544;9.232;2023-05-07T06:06:10;20.00;99.90
40660;DHT22;26753;45.544;9.232;2023-05-07T06:08:42;20.10;99.90
40660;DHT22;26753;45.544;9.232;2023-05-07T06:17:26;20.40;99.90
40660;DHT22;26753;45.544;9.232;2023-05-07T06:22:36;20.70;99.90
40660;DHT22;26753;45.544;9.232;2023-05-07T06:25:24;20.50;99.90
40660;DHT22;26753;45.544;9.232;2023-05-07T06:31:16;20.30;99.90
40660;DHT22;26753;45.544;9.232;2023-05-07T06:33:43;20.30;99.90
40660;DHT22;26753;45.544;9.232;2023-05-07T06:36:18;20.40;99.90
40660;DHT22;26753;45.544;9.232;2023-05-07T06:38:56;20.30;99.90
40660;DHT22;26753;45.544;9.232;2023-05-07T06:41:25;20.30;99.90
40660;DHT22;26753;45.544;9.232;2023-05-07T07:02:34;20.50;99.90
40660;DHT22;26753;45.544;9.232;2023-05-07T07:08:35;20.60;99.90
40660;DHT22;26753;45.544;9.232;2023-05-07T07:11:07;20.70;99.90
40660;DHT22;26753;45.544;9.232;2023-05-07T07:13:39;20.80;99.90
40660;DHT22;26753;45.544;9.232;2023-05-07T07:16:11;20.80;99.90
40660;DHT22;26753;45.544;9.232;2023-05-07T07:19:08;20.80;99.90
40660;DHT22;26753;45.544;9.232;2023-05-07T07:21:56;21.00;99.90
40660;DHT22;26753;45.544;9.232;2023-05-07T07:36:51;21.90;99.90
40660;DHT22;26753;45.544;9.232;2023-05-07T07:39:26;22.20;99.90
40660;DHT22;26753;45.544;9.232;2023-05-07T07:42:11;22.30;99.90
40660;DHT22;26753;45.544;9.232;2023-05-07T07:45:08;22.30;99.90
40660;DHT22;26753;45.544;9.232;2023-05-07T07:50:29;22.20;99.90
40660;DHT22;26753;45.544;9.232;2023-05-07T07:53:23;22.20;99.90
40660;DHT22;26753;45.544;9.232;2023-05-07T07:55:59;22.10;99.90
40660;DHT22;26753;45.544;9.232;2023-05-07T07:58:29;22.20;99.90
40660;DHT22;26753;45.544;9.232;2023-05-07T08:01:17;22.20;99.90
40660;DHT22;26753;45.544;9.232;2023-05-07T08:06:43;22.50;99.90
40660;DHT22;26753;45.544;9.232;2023-05-07T08:09:58;22.60;99.90
40660;DHT22;26753;45.544;9.232;2023-05-07T08:12:19;22.80;99.90
40660;DHT22;26753;45.544;9.232;2023-05-07T08:34:03;24.60;99.90
40660;DHT22;26753;45.544;9.232;2023-05-07T08:39:44;24.40;99.90
40660;DHT22;26753;45.544;9.232;2023-05-07T08:42:11;24.30;99.90
40660;DHT22;26753;45.544;9.232;2023-05-07T08:48:31;23.90;99.90
40660;DHT22;26753;45.544;9.232;2023-05-07T08:57:52;24.60;99.90
40660;DHT22;26753;45.544;9.232;2023-05-07T09:06:40;25.50;99.90
40660;DHT22;26753;45.544;9.232;2023-05-07T09:18:58;25.30;99.90
40660;DHT22;26753;45.544;9.232;2023-05-07T09:50:25;26.00;99.90
40660;DHT22;26753;45.544;9.232;2023-05-07T09:52:52;26.00;99.90
40660;DHT22;26753;45.544;9.232;2023-05-07T09:55:39;25.70;99.90
40660;DHT22;26753;45.544;9.232;2023-05-07T10:07:41;26.10;99.90
40660;DHT22;26753;45.544;9.232;2023-05-07T10:10:07;26.20;99.90
40660;DHT22;26753;45.544;9.232;2023-05-07T10:12:33;26.30;99.90
40660;DHT22;26753;45.544;9.232;2023-05-07T10:15:05;26.50;99.90
40660;DHT22;26753;45.544;9.232;2023-05-07T10:17:31;26.20;99.90
40660;DHT22;26753;45.544;9.232;2023-05-07T10:20:00;26.30;99.90
40660;DHT22;26753;45.544;9.232;2023-05-07T10:22:26;26.30;99.90
40660;DHT22;26753;45.544;9.232;2023-05-07T10:24:53;26.10;99.90
40660;DHT22;26753;45.544;9.232;2023-05-07T10:27:22;26.20;99.90
40660;DHT22;26753;45.544;9.232;2023-05-07T10:30:00;25.80;99.90
40660;DHT22;26753;45.544;9.232;2023-05-07T10:32:40;26.00;99.90
40660;DHT22;26753;45.544;9.232;2023-05-07T10:35:14;26.20;99.90
40660;DHT22;26753;45.544;9.232;2023-05-07T10:37:41;26.40;99.90
40660;DHT22;26753;45.544;9.232;2023-05-07T10:40:10;26.80;99.90
40660;DHT22;26753;45.544;9.232;2023-05-07T10:42:36;26.80;99.90
40660;DHT22;26753;45.544;9.232;2023-05-07T10:45:19;27.00;99.90
40660;DHT22;26753;45.544;9.232;2023-05-07T10:50:30;27.10;99.90
40660;DHT22;26753;45.544;9.232;2023-05-07T10:55:40;27.20;99.90
40660;DHT22;26753;45.544;9.232;2023-05-07T11:00:50;27.40;99.90
40660;DHT22;26753;45.544;9.232;2023-05-07T11:03:28;27.90;99.90
40660;DHT22;26753;45.544;9.232;2023-05-07T11:11:18;28.20;99.90
40660;DHT22;26753;45.544;9.232;2023-05-07T11:13:49;28.50;99.90
40660;DHT22;26753;45.544;9.232;2023-05-07T11:22:38;28.80;99.90
40660;DHT22;26753;45.544;9.232;2023-05-07T11:25:36;29.10;99.90
40660;DHT22;26753;45.544;9.232;2023-05-07T11:28:05;28.90;99.90
40660;DHT22;26753;45.544;9.232;2023-05-07T11:30:31;28.60;99.90
40660;DHT22;26753;45.544;9.232;2023-05-07T11:33:00;28.30;99.90
40660;DHT22;26753;45.544;9.232;2023-05-07T11:35:26;28.30;99.90
40660;DHT22;26753;45.544;9.232;2023-05-07T11:37:59;28.40;99.90
40660;DHT22;26753;45.544;9.232;2023-05-07T11:40:51;28.90;99.90
40660;DHT22;26753;45.544;9.232;2023-05-07T11:43:53;29.30;99.90
40660;DHT22;26753;45.544;9.232;2023-05-07T11:46:28;29.40;99.90
40660;DHT22;26753;45.544;9.232;2023-05-07T11:48:54;29.50;99.90
40660;DHT22;26753;45.544;9.232;2023-05-07T11:51:22;29.60;99.90
40660;DHT22;26753;45.544;9.232;2023-05-07T11:53:51;29.90;99.90
40660;DHT22;26753;45.544;9.232;2023-05-07T11:56:33;30.10;99.90
40660;DHT22;26753;45.544;9.232;2023-05-07T11:58:59;30.30;99.90
40660;DHT22;26753;45.544;9.232;2023-05-07T12:01:25;30.60;99.90
40660;DHT22;26753;45.544;9.232;2023-05-07T12:03:50;30.50;99.90
40660;DHT22;26753;45.544;9.232;2023-05-07T12:06:19;31.00;99.90
40660;DHT22;26753;45.544;9.232;2023-05-07T12:09:07;31.50;99.90
40660;DHT22;26753;45.544;9.232;2023-05-07T12:11:41;31.40;99.70
40660;DHT22;26753;45.544;9.232;2023-05-07T12:14:11;31.70;98.60
40660;DHT22;26753;45.544;9.232;2023-05-07T12:16:41;32.10;98.00
40660;DHT22;26753;45.544;9.232;2023-05-07T12:19:10;32.40;97.50
40660;DHT22;26753;45.544;9.232;2023-05-07T12:21:54;32.20;97.40
40660;DHT22;26753;45.544;9.232;2023-05-07T12:24:21;32.50;97.00
40660;DHT22;26753;45.544;9.232;2023-05-07T12:26:59;32.30;96.00
40660;DHT22;26753;45.544;9.232;2023-05-07T12:30:23;32.40;95.70
40660;DHT22;26753;45.544;9.232;2023-05-07T12:32:37;32.50;94.90
40660;DHT22;26753;45.544;9.232;2023-05-07T12:35:06;32.50;93.70
40660;DHT22;26753;45.544;9.232;2023-05-07T12:37:35;32.30;93.40
40660;DHT22;26753;45.544;9.232;2023-05-07T12:40:15;32.00;94.10
40660;DHT22;26753;45.544;9.232;2023-05-07T12:46:38;31.30;94.20
40660;DHT22;26753;45.544;9.232;2023-05-07T12:52:01;31.20;93.60
40660;DHT22;26753;45.544;9.232;2023-05-07T12:54:57;31.60;93.10
40660;DHT22;26753;45.544;9.232;2023-05-07T12:57:31;32.20;92.00
40660;DHT22;26753;45.544;9.232;2023-05-07T13:00:10;32.30;91.50
40660;DHT22;26753;45.544;9.232;2023-05-07T13:02:46;32.60;90.10
40660;DHT22;26753;45.544;9.232;2023-05-07T13:05:18;33.10;90.40
40660;DHT22;26753;45.544;9.232;2023-05-07T13:07:52;33.30;86.20
40660;DHT22;26753;45.544;9.232;2023-05-07T13:10:18;33.40;86.00
40660;DHT22;26753;45.544;9.232;2023-05-07T13:12:50;33.60;85.00
40660;DHT22;26753;45.544;9.232;2023-05-07T13:15:16;34.00;83.20
40660;DHT22;26753;45.544;9.232;2023-05-07T13:17:44;34.40;81.50
40660;DHT22;26753;45.544;9.232;2023-05-07T13:20:10;34.30;81.30
40660;DHT22;26753;45.544;9.232;2023-05-07T13:22:37;33.90;79.20
40660;DHT22;26753;45.544;9.232;2023-05-07T13:25:05;34.10;79.90
40660;DHT22;26753;45.544;9.232;2023-05-07T13:27:32;34.50;79.40
40660;DHT22;26753;45.544;9.232;2023-05-07T13:30:16;35.70;80.00
40660;DHT22;26753;45.544;9.232;2023-05-07T13:32:47;35.80;77.50
40660;DHT22;26753;45.544;9.232;2023-05-07T13:35:32;35.30;75.30
40660;DHT22;26753;45.544;9.232;2023-05-07T13:38:01;35.10;75.00
40660;DHT22;26753;45.544;9.232;2023-05-07T13:40:30;36.00;75.80
40660;DHT22;26753;45.544;9.232;2023-05-07T13:43:05;35.30;74.70
40660;DHT22;26753;45.544;9.232;2023-05-07T13:45:33;35.10;74.70
40660;DHT22;26753;45.544;9.232;2023-05-07T13:48:02;35.30;72.90
40660;DHT22;26753;45.544;9.232;2023-05-07T13:50:27;35.00;74.00
40660;DHT22;26753;45.544;9.232;2023-05-07T13:53:07;35.70;74.60
40660;DHT22;26753;45.544;9.232;2023-05-07T13:55:47;35.70;73.40
40660;DHT22;26753;45.544;9.232;2023-05-07T13:58:34;36.20;73.20
40660;DHT22;26753;45.544;9.232;2023-05-07T14:01:04;38.00;71.50
40660;DHT22;26753;45.544;9.232;2023-05-07T14:03:42;38.80;69.10
40660;DHT22;26753;45.544;9.232;2023-05-07T14:12:54;36.10;69.30
40660;DHT22;26753;45.544;9.232;2023-05-07T14:15:26;35.80;69.50
40660;DHT22;26753;45.544;9.232;2023-05-07T14:21:12;35.40;69.70
40660;DHT22;26753;45.544;9.232;2023-05-07T14:23:58;37.70;68.60
40660;DHT22;26753;45.544;9.232;2023-05-07T14:26:25;39.80;65.40
40660;DHT22;26753;45.544;9.232;2023-05-07T14:28:52;39.80;65.50
40660;DHT22;26753;45.544;9.232;2023-05-07T14:31:22;40.50;64.90
40660;DHT22;26753;45.544;9.232;2023-05-07T14:33:53;40.90;64.40
40660;DHT22;26753;45.544;9.232;2023-05-07T14:36:28;39.90;63.10
40660;DHT22;26753;45.544;9.232;2023-05-07T14:38:55;38.10;64.70
40660;DHT22;26753;45.544;9.232;2023-05-07T14:41:33;37.30;65.30
40660;DHT22;26753;45.544;9.232;2023-05-07T14:44:04;36.50;66.30
40660;DHT22;26753;45.544;9.232;2023-05-07T14:46:31;36.10;66.30
40660;DHT22;26753;45.544;9.232;2023-05-07T14:48:59;35.40;66.80
40660;DHT22;26753;45.544;9.232;2023-05-07T14:51:25;35.50;66.50
40660;DHT22;26753;45.544;9.232;2023-05-07T14:54:02;35.10;66.50
40660;DHT22;26753;45.544;9.232;2023-05-07T14:56:28;34.20;66.30
40660;DHT22;26753;45.544;9.232;2023-05-07T14:59:00;34.00;67.30
40660;DHT22;26753;45.544;9.232;2023-05-07T15:01:27;33.60;67.30
40660;DHT22;26753;45.544;9.232;2023-05-07T15:03:59;34.20;67.10
40660;DHT22;26753;45.544;9.232;2023-05-07T15:06:24;34.20;67.10
40660;DHT22;26753;45.544;9.232;2023-05-07T15:08:52;33.60;67.70
40660;DHT22;26753;45.544;9.232;2023-05-07T15:11:18;33.00;68.10
40660;DHT22;26753;45.544;9.232;2023-05-07T15:14:05;32.50;68.40
40660;DHT22;26753;45.544;9.232;2023-05-07T15:16:30;32.30;69.50
40660;DHT22;26753;45.544;9.232;2023-05-07T15:19:16;32.40;69.70
40660;DHT22;26753;45.544;9.232;2023-05-07T15:22:28;32.30;69.50
40660;DHT22;26753;45.544;9.232;2023-05-07T15:25:12;32.10;69.60
40660;DHT22;26753;45.544;9.232;2023-05-07T15:27:59;33.80;68.60
40660;DHT22;26753;45.544;9.232;2023-05-07T15:30:25;34.60;67.40
40660;DHT22;26753;45.544;9.232;2023-05-07T15:32:51;34.20;67.50
40660;DHT22;26753;45.544;9.232;2023-05-07T15:35:17;35.60;66.80
40660;DHT22;26753;45.544;9.232;2023-05-07T15:37:49;35.70;66.10
40660;DHT22;26753;45.544;9.232;2023-05-07T15:40:30;35.00;65.80
40660;DHT22;26753;45.544;9.232;2023-05-07T15:43:18;34.20;66.10
40660;DHT22;26753;45.544;9.232;2023-05-07T15:48:39;32.80;68.20
40660;DHT22;26753;45.544;9.232;2023-05-07T15:51:21;32.20;68.70
40660;DHT22;26753;45.544;9.232;2023-05-07T15:53:48;32.20;69.30
40660;DHT22;26753;45.544;9.232;2023-05-07T15:56:16;31.90;69.00
40660;DHT22;26753;45.544;9.232;2023-05-07T15:58:42;32.70;68.50
40660;DHT22;26753;45.544;9.232;2023-05-07T16:01:07;32.20;68.60
40660;DHT22;26753;45.544;9.232;2023-05-07T16:03:42;32.00;69.10
40660;DHT22;26753;45.544;9.232;2023-05-07T16:06:28;32.40;68.70
40660;DHT22;26753;45.544;9.232;2023-05-07T16:08:54;32.80;68.60
40660;DHT22;26753;45.544;9.232;2023-05-07T16:11:20;33.70;68.10
40660;DHT22;26753;45.544;9.232;2023-05-07T16:13:46;33.30;67.70
40660;DHT22;26753;45.544;9.232;2023-05-07T16:16:21;32.60;68.30
40660;DHT22;26753;45.544;9.232;2023-05-07T16:18:56;31.90;69.50
40660;DHT22;26753;45.544;9.232;2023-05-07T16:21:25;31.10;70.50
40660;DHT22;26753;45.544;9.232;2023-05-07T16:24:00;30.90;71.00
40660;DHT22;26753;45.544;9.232;2023-05-07T16:26:34;30.70;71.50
40660;DHT22;26753;45.544;9.232;2023-05-07T16:31:41;30.00;72.90
40660;DHT22;26753;45.544;9.232;2023-05-07T16:34:13;30.50;73.00
40660;DHT22;26753;45.544;9.232;2023-05-07T16:36:51;30.80;72.50
40660;DHT22;26753;45.544;9.232;2023-05-07T16:39:18;29.80;73.10
40660;DHT22;26753;45.544;9.232;2023-05-07T16:41:47;29.80;74.60
40660;DHT22;26753;45.544;9.232;2023-05-07T16:44:18;29.50;75.70
40660;DHT22;26753;45.544;9.232;2023-05-07T16:46:50;29.30;76.50
40660;DHT22;26753;45.544;9.232;2023-05-07T16:49:39;29.10;76.90
40660;DHT22;26753;45.544;9.232;2023-05-07T16:52:03;28.80;77.80
40660;DHT22;26753;45.544;9.232;2023-05-07T16:54:30;28.40;78.60
40660;DHT22;26753;45.544;9.232;2023-05-07T16:57:31;28.20;79.00
40660;DHT22;26753;45.544;9.232;2023-05-07T17:02:40;28.00;79.90
40660;DHT22;26753;45.544;9.232;2023-05-07T17:05:06;26.60;79.70
40660;DHT22;26753;45.544;9.232;2023-05-07T17:07:50;27.80;80.80
40660;DHT22;26753;45.544;9.232;2023-05-07T17:10:16;27.80;81.00
40660;DHT22;26753;45.544;9.232;2023-05-07T17:12:42;27.70;81.10
40660;DHT22;26753;45.544;9.232;2023-05-07T17:15:07;27.70;81.40
40660;DHT22;26753;45.544;9.232;2023-05-07T17:17:36;27.50;81.70
40660;DHT22;26753;45.544;9.232;2023-05-07T17:20:03;27.30;82.00
40660;DHT22;26753;45.544;9.232;2023-05-07T17:22:32;27.30;82.70
40660;DHT22;26753;45.544;9.232;2023-05-07T17:24:58;27.20;83.00
40660;DHT22;26753;45.544;9.232;2023-05-07T17:27:27;27.30;83.30
40660;DHT22;26753;45.544;9.232;2023-05-07T17:29:52;27.20;83.50
40660;DHT22;26753;45.544;9.232;2023-05-07T17:32:18;27.10;83.70
40660;DHT22;26753;45.544;9.232;2023-05-07T17:34:44;27.10;84.30
40660;DHT22;26753;45.544;9.232;2023-05-07T17:37:13;27.00;84.20
40660;DHT22;26753;45.544;9.232;2023-05-07T17:39:39;27.00;84.70
40660;DHT22;26753;45.544;9.232;2023-05-07T17:42:10;27.10;84.60
40660;DHT22;26753;45.544;9.232;2023-05-07T17:44:50;27.00;84.50
40660;DHT22;26753;45.544;9.232;2023-05-07T17:47:33;27.00;84.40
40660;DHT22;26753;45.544;9.232;2023-05-07T17:50:19;27.00;84.70
40660;DHT22;26753;45.544;9.232;2023-05-07T17:52:57;27.00;84.70
40660;DHT22;26753;45.544;9.232;2023-05-07T17:55:22;26.90;84.90
40660;DHT22;26753;45.544;9.232;2023-05-07T17:57:48;26.80;85.10
40660;DHT22;26753;45.544;9.232;2023-05-07T18:00:13;26.70;85.50
40660;DHT22;26753;45.544;9.232;2023-05-07T18:02:42;27.10;85.80
40660;DHT22;26753;45.544;9.232;2023-05-07T18:05:08;26.70;85.70
40660;DHT22;26753;45.544;9.232;2023-05-07T18:10:57;26.60;85.90
40660;DHT22;26753;45.544;9.232;2023-05-07T18:13:33;26.60;86.70
40660;DHT22;26753;45.544;9.232;2023-05-07T18:16:02;26.60;86.70
40660;DHT22;26753;45.544;9.232;2023-05-07T18:18:30;26.60;86.60
40660;DHT22;26753;45.544;9.232;2023-05-07T18:20:59;26.50;87.00
40660;DHT22;26753;45.544;9.232;2023-05-07T18:23:35;26.50;86.90
40660;DHT22;26753;45.544;9.232;2023-05-07T18:26:01;26.40;87.20
40660;DHT22;26753;45.544;9.232;2023-05-07T18:28:47;26.30;87.30
40660;DHT22;26753;45.544;9.232;2023-05-07T18:31:13;26.30;87.80
40660;DHT22;26753;45.544;9.232;2023-05-07T18:33:44;26.30;88.20
40660;DHT22;26753;45.544;9.232;2023-05-07T18:36:09;26.20;88.10
40660;DHT22;26753;45.544;9.232;2023-05-07T18:38:35;26.20;88.30
40660;DHT22;26753;45.544;9.232;2023-05-07T18:41:03;26.10;88.90
40660;DHT22;26753;45.544;9.232;2023-05-07T18:43:30;26.10;89.30
40660;DHT22;26753;45.544;9.232;2023-05-07T18:45:55;26.00;89.40
40660;DHT22;26753;45.544;9.232;2023-05-07T18:48:21;26.00;89.70
40660;DHT22;26753;45.544;9.232;2023-05-07T18:50:47;25.90;90.00
40660;DHT22;26753;45.544;9.232;2023-05-07T18:53:16;25.80;90.30
40660;DHT22;26753;45.544;9.232;2023-05-07T18:55:41;25.80;90.20
40660;DHT22;26753;45.544;9.232;2023-05-07T18:58:10;25.60;90.40
40660;DHT22;26753;45.544;9.232;2023-05-07T19:00:36;25.40;90.40
40660;DHT22;26753;45.544;9.232;2023-05-07T19:03:01;25.40;88.40
40660;DHT22;26753;45.544;9.232;2023-05-07T19:05:27;25.10;87.30
40660;DHT22;26753;45.544;9.232;2023-05-07T19:07:52;25.10;86.90
40660;DHT22;26753;45.544;9.232;2023-05-07T19:10:18;24.90;85.70
40660;DHT22;26753;45.544;9.232;2023-05-07T19:12:44;24.80;83.10
40660;DHT22;26753;45.544;9.232;2023-05-07T19:15:09;24.70;83.00
40660;DHT22;26753;45.544;9.232;2023-05-07T19:17:35;24.70;82.70
40660;DHT22;26753;45.544;9.232;2023-05-07T19:20:04;24.60;82.70
40660;DHT22;26753;45.544;9.232;2023-05-07T19:22:30;24.50;83.00
40660;DHT22;26753;45.544;9.232;2023-05-07T19:25:19;24.50;83.30
40660;DHT22;26753;45.544;9.232;2023-05-07T19:27:53;24.40;82.40
40660;DHT22;26753;45.544;9.232;2023-05-07T19:30:21;24.40;82.00
40660;DHT22;26753;45.544;9.232;2023-05-07T19:32:47;24.30;81.50